Kezdőlap
METAR-TAF:

METAR-TAF

Repülőterek :

Willmar Municipal Airport (John L. Rice Field)

Willmar, Minnesota, Amerikai Egyesült Államok

földrajzi szélesség: 45-07N, földrajzi hosszúság: 095-05W, magasság: 344 m

Jelenlegi meteorológiai megfigyelések

A jelentés 4 perccel ezelõtt készült, 07:36 UTC
Nyugat-északnyugati szél 10 kt
Hőmérséklet -5°C
Páratartalom 86%
Légköri nyomás 1020 hPa
Látótávolság: 11.3 km
Szakadozott felhőzet 3300 lábon
Szakadozott felhőzet 3800 lábon
Borult 5000 lábon
enyhe havazás

METAR: KBDH 180736Z AUTO 30010KT 7SM -SN BKN033 BKN038 OVC050 M05/M07 A3013 RMK AO2

Idő: 01:40 (07:40 UTC)


TAF: hiányzik

Meteorológiai megfigyelések és előrejelzések több, mint 4000 repülőtéren (METAR és TAF jelentéseket).

A térképen piros és sárga pontok jelzik az elérhető meteorológiai állomásokat.

Mozgassa az egeret a pont fölött, hogy megjelenjen az állomás neve.

Azután kattintson az időjárási megfigyelések és előrejelzések megtekintéséhez.

A térkép megváltoztatása: kattintson a fekete keresztel jelölt zöld gombra ráközelítéshez, a vonallal jelölt zöld gombra távolításhoz, vagy a zöld nyilakra a szomszédos térképek eléréséhez.


METAR-TAF: